Terminal Aerodrome Forecast
Issued by NWS

Home | Current Version | Previous Version | Text Only | Print | Product List | Glossary On
Versions: 1 2 3 4 5 6 7 8 9 10 11 12 13 14
000
FTUS42 KILM 300500
TAFCRE
TAF
KCRE 300520Z 3006/3106 15006KT P6SM FEW015
     FM300800 00000KT 4SM BR SCT006
      TEMPO 3011/3012 2SM BR BKN006
     FM301300 17009KT P6SM SCT040=

USA.gov is the U.S. government's official web portal to all federal, state and local government web resources and services.